sensor_id;sensor_type;location;lat;lon;timestamp;P1;durP1;ratioP1;P2;durP2;ratioP2
72427;SDS011;60419;48.880;18.036;2023-07-29T00:00:09;6.72;;;3.80;;
72427;SDS011;60419;48.880;18.036;2023-07-29T00:02:55;7.57;;;4.30;;
72427;SDS011;60419;48.880;18.036;2023-07-29T00:05:40;6.03;;;4.05;;
72427;SDS011;60419;48.880;18.036;2023-07-29T00:08:26;7.18;;;4.78;;
72427;SDS011;60419;48.880;18.036;2023-07-29T00:11:11;8.10;;;4.70;;
72427;SDS011;60419;48.880;18.036;2023-07-29T00:13:57;7.05;;;4.38;;
72427;SDS011;60419;48.880;18.036;2023-07-29T00:16:42;7.55;;;4.30;;
72427;SDS011;60419;48.880;18.036;2023-07-29T00:19:28;6.05;;;3.90;;
72427;SDS011;60419;48.880;18.036;2023-07-29T00:22:13;6.47;;;4.70;;
72427;SDS011;60419;48.880;18.036;2023-07-29T00:24:59;7.38;;;5.05;;
72427;SDS011;60419;48.880;18.036;2023-07-29T00:27:44;7.80;;;4.70;;
72427;SDS011;60419;48.880;18.036;2023-07-29T00:30:29;7.30;;;5.00;;
72427;SDS011;60419;48.880;18.036;2023-07-29T00:33:15;7.07;;;4.53;;
72427;SDS011;60419;48.880;18.036;2023-07-29T00:36:00;8.25;;;4.78;;
72427;SDS011;60419;48.880;18.036;2023-07-29T00:38:47;7.43;;;5.30;;
72427;SDS011;60419;48.880;18.036;2023-07-29T00:41:32;6.72;;;5.22;;
72427;SDS011;60419;48.880;18.036;2023-07-29T00:44:17;9.68;;;5.40;;
72427;SDS011;60419;48.880;18.036;2023-07-29T00:47:03;8.60;;;5.53;;
72427;SDS011;60419;48.880;18.036;2023-07-29T00:49:51;7.75;;;5.40;;
72427;SDS011;60419;48.880;18.036;2023-07-29T00:52:36;6.70;;;5.07;;
72427;SDS011;60419;48.880;18.036;2023-07-29T00:55:22;9.63;;;5.90;;
72427;SDS011;60419;48.880;18.036;2023-07-29T00:58:07;7.05;;;4.93;;
72427;SDS011;60419;48.880;18.036;2023-07-29T01:00:53;6.85;;;4.85;;
72427;SDS011;60419;48.880;18.036;2023-07-29T01:03:39;7.97;;;4.90;;
72427;SDS011;60419;48.880;18.036;2023-07-29T01:09:46;8.55;;;5.53;;
72427;SDS011;60419;48.880;18.036;2023-07-29T01:12:42;9.02;;;5.28;;
72427;SDS011;60419;48.880;18.036;2023-07-29T01:15:45;9.40;;;5.82;;
72427;SDS011;60419;48.880;18.036;2023-07-29T01:18:37;7.55;;;5.18;;
72427;SDS011;60419;48.880;18.036;2023-07-29T01:21:24;6.78;;;5.28;;
72427;SDS011;60419;48.880;18.036;2023-07-29T01:24:12;8.25;;;5.45;;
72427;SDS011;60419;48.880;18.036;2023-07-29T01:26:57;8.45;;;5.40;;
72427;SDS011;60419;48.880;18.036;2023-07-29T01:29:42;8.00;;;5.72;;
72427;SDS011;60419;48.880;18.036;2023-07-29T01:33:14;7.65;;;5.13;;
72427;SDS011;60419;48.880;18.036;2023-07-29T01:35:50;8.75;;;5.55;;
72427;SDS011;60419;48.880;18.036;2023-07-29T01:38:40;7.53;;;5.40;;
72427;SDS011;60419;48.880;18.036;2023-07-29T01:41:26;8.80;;;5.20;;
72427;SDS011;60419;48.880;18.036;2023-07-29T01:44:12;7.60;;;5.47;;
72427;SDS011;60419;48.880;18.036;2023-07-29T01:46:59;7.55;;;4.93;;
72427;SDS011;60419;48.880;18.036;2023-07-29T01:49:44;6.60;;;5.28;;
72427;SDS011;60419;48.880;18.036;2023-07-29T01:52:30;7.43;;;5.00;;
72427;SDS011;60419;48.880;18.036;2023-07-29T01:55:15;12.38;;;5.38;;
72427;SDS011;60419;48.880;18.036;2023-07-29T01:58:01;7.60;;;5.18;;
72427;SDS011;60419;48.880;18.036;2023-07-29T02:00:46;8.20;;;5.00;;
72427;SDS011;60419;48.880;18.036;2023-07-29T02:03:31;6.68;;;4.72;;
72427;SDS011;60419;48.880;18.036;2023-07-29T02:06:17;8.02;;;4.80;;
72427;SDS011;60419;48.880;18.036;2023-07-29T02:09:02;8.15;;;4.65;;
72427;SDS011;60419;48.880;18.036;2023-07-29T02:11:49;8.02;;;5.22;;
72427;SDS011;60419;48.880;18.036;2023-07-29T02:14:34;6.50;;;4.68;;
72427;SDS011;60419;48.880;18.036;2023-07-29T02:17:20;9.18;;;4.40;;
72427;SDS011;60419;48.880;18.036;2023-07-29T02:20:06;8.00;;;4.68;;
72427;SDS011;60419;48.880;18.036;2023-07-29T02:22:52;7.30;;;4.90;;
72427;SDS011;60419;48.880;18.036;2023-07-29T02:25:37;8.35;;;4.80;;
72427;SDS011;60419;48.880;18.036;2023-07-29T02:28:23;6.90;;;4.90;;
72427;SDS011;60419;48.880;18.036;2023-07-29T02:31:09;8.38;;;5.00;;
72427;SDS011;60419;48.880;18.036;2023-07-29T02:33:55;6.43;;;4.90;;
72427;SDS011;60419;48.880;18.036;2023-07-29T02:36:41;6.70;;;4.70;;
72427;SDS011;60419;48.880;18.036;2023-07-29T02:39:27;6.75;;;4.55;;
72427;SDS011;60419;48.880;18.036;2023-07-29T02:42:12;9.70;;;4.53;;
72427;SDS011;60419;48.880;18.036;2023-07-29T02:44:57;10.02;;;4.80;;
72427;SDS011;60419;48.880;18.036;2023-07-29T02:47:43;7.65;;;4.85;;
72427;SDS011;60419;48.880;18.036;2023-07-29T02:50:29;7.85;;;5.00;;
72427;SDS011;60419;48.880;18.036;2023-07-29T02:53:14;8.60;;;5.60;;
72427;SDS011;60419;48.880;18.036;2023-07-29T02:55:59;8.82;;;5.35;;
72427;SDS011;60419;48.880;18.036;2023-07-29T02:58:45;9.48;;;6.38;;
72427;SDS011;60419;48.880;18.036;2023-07-29T03:01:30;8.15;;;6.25;;
72427;SDS011;60419;48.880;18.036;2023-07-29T03:04:16;8.82;;;5.97;;
72427;SDS011;60419;48.880;18.036;2023-07-29T03:07:01;8.60;;;5.97;;
72427;SDS011;60419;48.880;18.036;2023-07-29T03:09:47;8.40;;;5.72;;
72427;SDS011;60419;48.880;18.036;2023-07-29T03:12:32;11.90;;;6.07;;
72427;SDS011;60419;48.880;18.036;2023-07-29T03:15:18;10.77;;;6.38;;
72427;SDS011;60419;48.880;18.036;2023-07-29T03:18:03;11.48;;;6.45;;
72427;SDS011;60419;48.880;18.036;2023-07-29T03:20:49;10.40;;;6.03;;
72427;SDS011;60419;48.880;18.036;2023-07-29T03:23:34;11.50;;;6.13;;
72427;SDS011;60419;48.880;18.036;2023-07-29T03:26:20;8.00;;;5.97;;
72427;SDS011;60419;48.880;18.036;2023-07-29T03:29:05;8.88;;;6.15;;
72427;SDS011;60419;48.880;18.036;2023-07-29T03:31:51;8.82;;;6.50;;
72427;SDS011;60419;48.880;18.036;2023-07-29T03:34:36;9.15;;;6.45;;
72427;SDS011;60419;48.880;18.036;2023-07-29T03:37:22;9.77;;;5.97;;
72427;SDS011;60419;48.880;18.036;2023-07-29T03:40:07;10.43;;;6.65;;
72427;SDS011;60419;48.880;18.036;2023-07-29T03:42:54;8.73;;;6.57;;
72427;SDS011;60419;48.880;18.036;2023-07-29T03:45:39;10.55;;;6.70;;
72427;SDS011;60419;48.880;18.036;2023-07-29T03:48:25;9.38;;;6.15;;
72427;SDS011;60419;48.880;18.036;2023-07-29T03:51:11;9.23;;;6.35;;
72427;SDS011;60419;48.880;18.036;2023-07-29T03:53:56;7.60;;;6.05;;
72427;SDS011;60419;48.880;18.036;2023-07-29T03:56:41;11.13;;;6.65;;
72427;SDS011;60419;48.880;18.036;2023-07-29T03:59:27;8.35;;;6.50;;
72427;SDS011;60419;48.880;18.036;2023-07-29T04:02:12;8.57;;;5.82;;
72427;SDS011;60419;48.880;18.036;2023-07-29T04:04:58;9.27;;;7.07;;
72427;SDS011;60419;48.880;18.036;2023-07-29T04:07:43;9.55;;;7.40;;
72427;SDS011;60419;48.880;18.036;2023-07-29T04:10:28;11.18;;;7.22;;
72427;SDS011;60419;48.880;18.036;2023-07-29T04:13:16;9.90;;;7.72;;
72427;SDS011;60419;48.880;18.036;2023-07-29T04:16:02;10.00;;;6.60;;
72427;SDS011;60419;48.880;18.036;2023-07-29T04:18:47;7.75;;;6.10;;
72427;SDS011;60419;48.880;18.036;2023-07-29T04:21:32;9.45;;;6.60;;
72427;SDS011;60419;48.880;18.036;2023-07-29T04:24:18;8.05;;;6.38;;
72427;SDS011;60419;48.880;18.036;2023-07-29T04:27:05;8.35;;;5.85;;
72427;SDS011;60419;48.880;18.036;2023-07-29T04:29:50;8.98;;;6.57;;
72427;SDS011;60419;48.880;18.036;2023-07-29T04:32:36;9.63;;;6.43;;
72427;SDS011;60419;48.880;18.036;2023-07-29T04:35:21;8.40;;;6.07;;
72427;SDS011;60419;48.880;18.036;2023-07-29T04:38:07;11.10;;;6.85;;
72427;SDS011;60419;48.880;18.036;2023-07-29T04:40:52;9.38;;;6.95;;
72427;SDS011;60419;48.880;18.036;2023-07-29T04:43:37;10.32;;;6.40;;
72427;SDS011;60419;48.880;18.036;2023-07-29T04:46:23;8.50;;;5.85;;
72427;SDS011;60419;48.880;18.036;2023-07-29T04:49:08;8.25;;;6.00;;
72427;SDS011;60419;48.880;18.036;2023-07-29T04:51:53;8.00;;;5.88;;
72427;SDS011;60419;48.880;18.036;2023-07-29T04:54:39;8.43;;;6.45;;
72427;SDS011;60419;48.880;18.036;2023-07-29T04:57:24;9.60;;;6.80;;
72427;SDS011;60419;48.880;18.036;2023-07-29T05:00:10;10.77;;;7.32;;
72427;SDS011;60419;48.880;18.036;2023-07-29T05:02:56;10.88;;;7.47;;
72427;SDS011;60419;48.880;18.036;2023-07-29T05:05:41;11.07;;;8.90;;
72427;SDS011;60419;48.880;18.036;2023-07-29T05:08:26;11.40;;;8.02;;
72427;SDS011;60419;48.880;18.036;2023-07-29T05:11:12;10.07;;;7.90;;
72427;SDS011;60419;48.880;18.036;2023-07-29T05:13:57;9.50;;;7.07;;
72427;SDS011;60419;48.880;18.036;2023-07-29T05:16:43;11.00;;;7.95;;
72427;SDS011;60419;48.880;18.036;2023-07-29T05:19:29;11.43;;;7.55;;
72427;SDS011;60419;48.880;18.036;2023-07-29T05:22:14;10.95;;;7.45;;
72427;SDS011;60419;48.880;18.036;2023-07-29T05:25:00;10.82;;;6.88;;
72427;SDS011;60419;48.880;18.036;2023-07-29T05:27:45;8.88;;;6.68;;
72427;SDS011;60419;48.880;18.036;2023-07-29T05:30:32;7.93;;;6.25;;
72427;SDS011;60419;48.880;18.036;2023-07-29T05:33:18;8.90;;;6.60;;
72427;SDS011;60419;48.880;18.036;2023-07-29T05:36:04;9.07;;;7.00;;
72427;SDS011;60419;48.880;18.036;2023-07-29T05:38:50;9.35;;;6.72;;
72427;SDS011;60419;48.880;18.036;2023-07-29T05:41:36;8.45;;;6.43;;
72427;SDS011;60419;48.880;18.036;2023-07-29T05:44:22;8.98;;;6.60;;
72427;SDS011;60419;48.880;18.036;2023-07-29T05:47:07;9.70;;;6.47;;
72427;SDS011;60419;48.880;18.036;2023-07-29T05:49:53;10.77;;;6.40;;
72427;SDS011;60419;48.880;18.036;2023-07-29T05:52:38;9.20;;;6.80;;
72427;SDS011;60419;48.880;18.036;2023-07-29T05:55:24;8.18;;;6.05;;
72427;SDS011;60419;48.880;18.036;2023-07-29T05:58:09;8.52;;;6.65;;
72427;SDS011;60419;48.880;18.036;2023-07-29T06:00:54;9.07;;;6.15;;
72427;SDS011;60419;48.880;18.036;2023-07-29T06:03:40;9.93;;;7.10;;
72427;SDS011;60419;48.880;18.036;2023-07-29T06:06:25;9.13;;;6.80;;
72427;SDS011;60419;48.880;18.036;2023-07-29T06:09:10;8.05;;;6.32;;
72427;SDS011;60419;48.880;18.036;2023-07-29T06:11:56;9.00;;;6.38;;
72427;SDS011;60419;48.880;18.036;2023-07-29T06:14:41;9.02;;;5.90;;
72427;SDS011;60419;48.880;18.036;2023-07-29T06:17:27;11.18;;;9.43;;
72427;SDS011;60419;48.880;18.036;2023-07-29T06:20:12;10.10;;;8.23;;
72427;SDS011;60419;48.880;18.036;2023-07-29T06:22:57;8.23;;;6.57;;
72427;SDS011;60419;48.880;18.036;2023-07-29T06:25:43;6.45;;;5.13;;
72427;SDS011;60419;48.880;18.036;2023-07-29T06:28:28;5.85;;;3.60;;
72427;SDS011;60419;48.880;18.036;2023-07-29T06:31:13;5.10;;;3.65;;
72427;SDS011;60419;48.880;18.036;2023-07-29T06:33:59;5.70;;;3.95;;
72427;SDS011;60419;48.880;18.036;2023-07-29T06:36:45;8.73;;;5.22;;
72427;SDS011;60419;48.880;18.036;2023-07-29T06:39:30;6.90;;;4.45;;
72427;SDS011;60419;48.880;18.036;2023-07-29T06:42:15;7.25;;;4.63;;
72427;SDS011;60419;48.880;18.036;2023-07-29T06:45:01;7.47;;;5.25;;
72427;SDS011;60419;48.880;18.036;2023-07-29T06:47:46;6.15;;;3.83;;
72427;SDS011;60419;48.880;18.036;2023-07-29T06:50:32;7.97;;;4.88;;
72427;SDS011;60419;48.880;18.036;2023-07-29T06:53:17;7.80;;;4.85;;
72427;SDS011;60419;48.880;18.036;2023-07-29T06:56:02;5.28;;;3.40;;
72427;SDS011;60419;48.880;18.036;2023-07-29T06:58:48;4.75;;;3.47;;
72427;SDS011;60419;48.880;18.036;2023-07-29T07:01:33;5.95;;;4.30;;
72427;SDS011;60419;48.880;18.036;2023-07-29T07:04:19;5.55;;;4.03;;
72427;SDS011;60419;48.880;18.036;2023-07-29T07:07:05;8.52;;;4.22;;
72427;SDS011;60419;48.880;18.036;2023-07-29T07:09:50;8.48;;;4.88;;
72427;SDS011;60419;48.880;18.036;2023-07-29T07:12:36;6.57;;;5.22;;
72427;SDS011;60419;48.880;18.036;2023-07-29T07:15:21;9.50;;;6.07;;
72427;SDS011;60419;48.880;18.036;2023-07-29T07:18:06;9.18;;;6.00;;
72427;SDS011;60419;48.880;18.036;2023-07-29T07:20:53;7.85;;;6.40;;
72427;SDS011;60419;48.880;18.036;2023-07-29T07:23:38;7.70;;;5.63;;
72427;SDS011;60419;48.880;18.036;2023-07-29T07:26:24;7.30;;;5.30;;
72427;SDS011;60419;48.880;18.036;2023-07-29T07:29:09;9.35;;;5.13;;
72427;SDS011;60419;48.880;18.036;2023-07-29T07:31:55;8.65;;;5.15;;
72427;SDS011;60419;48.880;18.036;2023-07-29T07:34:41;8.75;;;6.47;;
72427;SDS011;60419;48.880;18.036;2023-07-29T07:37:26;10.38;;;6.05;;
72427;SDS011;60419;48.880;18.036;2023-07-29T07:40:12;7.57;;;5.22;;
72427;SDS011;60419;48.880;18.036;2023-07-29T07:42:57;7.60;;;5.00;;
72427;SDS011;60419;48.880;18.036;2023-07-29T07:45:42;6.72;;;4.53;;
72427;SDS011;60419;48.880;18.036;2023-07-29T07:48:28;6.82;;;4.55;;
72427;SDS011;60419;48.880;18.036;2023-07-29T07:51:13;8.77;;;4.72;;
72427;SDS011;60419;48.880;18.036;2023-07-29T07:53:59;8.23;;;5.38;;
72427;SDS011;60419;48.880;18.036;2023-07-29T07:56:44;7.05;;;4.68;;
72427;SDS011;60419;48.880;18.036;2023-07-29T07:59:29;6.82;;;3.75;;
72427;SDS011;60419;48.880;18.036;2023-07-29T08:02:15;6.38;;;4.05;;
72427;SDS011;60419;48.880;18.036;2023-07-29T08:05:00;5.80;;;3.65;;
72427;SDS011;60419;48.880;18.036;2023-07-29T08:07:46;5.60;;;3.72;;
72427;SDS011;60419;48.880;18.036;2023-07-29T08:10:31;4.50;;;3.25;;
72427;SDS011;60419;48.880;18.036;2023-07-29T08:13:16;6.30;;;3.00;;
72427;SDS011;60419;48.880;18.036;2023-07-29T08:16:03;5.78;;;3.55;;
72427;SDS011;60419;48.880;18.036;2023-07-29T08:18:48;6.93;;;3.92;;
72427;SDS011;60419;48.880;18.036;2023-07-29T08:21:34;6.05;;;3.60;;
72427;SDS011;60419;48.880;18.036;2023-07-29T08:24:19;6.05;;;3.30;;
72427;SDS011;60419;48.880;18.036;2023-07-29T08:27:05;7.30;;;3.60;;
72427;SDS011;60419;48.880;18.036;2023-07-29T08:29:50;4.70;;;3.05;;
72427;SDS011;60419;48.880;18.036;2023-07-29T08:32:36;5.70;;;3.20;;
72427;SDS011;60419;48.880;18.036;2023-07-29T08:35:21;5.75;;;3.38;;
72427;SDS011;60419;48.880;18.036;2023-07-29T08:38:06;4.63;;;3.13;;
72427;SDS011;60419;48.880;18.036;2023-07-29T08:43:47;7.18;;;3.53;;
72427;SDS011;60419;48.880;18.036;2023-07-29T08:46:44;5.97;;;3.85;;
72427;SDS011;60419;48.880;18.036;2023-07-29T08:49:30;5.13;;;3.38;;
72427;SDS011;60419;48.880;18.036;2023-07-29T08:52:16;5.78;;;3.17;;
72427;SDS011;60419;48.880;18.036;2023-07-29T08:55:03;5.13;;;3.20;;
72427;SDS011;60419;48.880;18.036;2023-07-29T08:57:49;5.00;;;3.30;;
72427;SDS011;60419;48.880;18.036;2023-07-29T09:00:35;4.60;;;2.90;;
72427;SDS011;60419;48.880;18.036;2023-07-29T09:03:22;7.25;;;3.03;;
72427;SDS011;60419;48.880;18.036;2023-07-29T09:06:08;5.35;;;2.80;;
72427;SDS011;60419;48.880;18.036;2023-07-29T09:08:54;6.05;;;3.15;;
72427;SDS011;60419;48.880;18.036;2023-07-29T09:11:41;4.30;;;2.63;;
72427;SDS011;60419;48.880;18.036;2023-07-29T09:14:26;5.45;;;2.47;;
72427;SDS011;60419;48.880;18.036;2023-07-29T09:17:13;4.72;;;2.92;;
72427;SDS011;60419;48.880;18.036;2023-07-29T09:19:59;4.00;;;2.60;;
72427;SDS011;60419;48.880;18.036;2023-07-29T09:22:44;4.10;;;2.60;;
72427;SDS011;60419;48.880;18.036;2023-07-29T09:25:30;4.82;;;2.42;;
72427;SDS011;60419;48.880;18.036;2023-07-29T09:28:15;3.90;;;2.15;;
72427;SDS011;60419;48.880;18.036;2023-07-29T09:31:02;4.80;;;2.53;;
72427;SDS011;60419;48.880;18.036;2023-07-29T09:33:48;3.42;;;2.20;;
72427;SDS011;60419;48.880;18.036;2023-07-29T09:36:33;3.28;;;2.20;;
72427;SDS011;60419;48.880;18.036;2023-07-29T09:39:19;3.80;;;2.20;;
72427;SDS011;60419;48.880;18.036;2023-07-29T09:42:09;4.90;;;2.45;;
72427;SDS011;60419;48.880;18.036;2023-07-29T09:44:57;3.60;;;2.22;;
72427;SDS011;60419;48.880;18.036;2023-07-29T09:47:42;3.70;;;2.10;;
72427;SDS011;60419;48.880;18.036;2023-07-29T09:50:31;4.88;;;2.10;;
72427;SDS011;60419;48.880;18.036;2023-07-29T09:53:16;3.83;;;2.60;;
72427;SDS011;60419;48.880;18.036;2023-07-29T09:56:02;4.15;;;2.40;;
72427;SDS011;60419;48.880;18.036;2023-07-29T09:58:48;3.97;;;2.25;;
72427;SDS011;60419;48.880;18.036;2023-07-29T10:01:34;3.55;;;2.10;;
72427;SDS011;60419;48.880;18.036;2023-07-29T10:04:20;3.15;;;1.90;;
72427;SDS011;60419;48.880;18.036;2023-07-29T10:07:06;3.35;;;2.10;;
72427;SDS011;60419;48.880;18.036;2023-07-29T10:09:52;4.20;;;2.20;;
72427;SDS011;60419;48.880;18.036;2023-07-29T10:12:39;3.33;;;2.13;;
72427;SDS011;60419;48.880;18.036;2023-07-29T10:15:27;3.53;;;1.98;;
72427;SDS011;60419;48.880;18.036;2023-07-29T10:18:14;5.72;;;2.20;;
72427;SDS011;60419;48.880;18.036;2023-07-29T10:21:01;4.07;;;2.10;;
72427;SDS011;60419;48.880;18.036;2023-07-29T10:23:47;4.35;;;2.00;;
72427;SDS011;60419;48.880;18.036;2023-07-29T10:26:38;3.28;;;1.70;;
72427;SDS011;60419;48.880;18.036;2023-07-29T10:29:26;3.25;;;1.80;;
72427;SDS011;60419;48.880;18.036;2023-07-29T10:32:16;2.72;;;1.60;;
72427;SDS011;60419;48.880;18.036;2023-07-29T10:35:01;2.60;;;1.40;;
72427;SDS011;60419;48.880;18.036;2023-07-29T10:37:47;2.45;;;1.40;;
72427;SDS011;60419;48.880;18.036;2023-07-29T10:43:36;4.13;;;2.00;;
72427;SDS011;60419;48.880;18.036;2023-07-29T10:46:25;3.63;;;1.75;;
72427;SDS011;60419;48.880;18.036;2023-07-29T10:49:10;3.67;;;2.10;;
72427;SDS011;60419;48.880;18.036;2023-07-29T10:51:56;4.28;;;2.08;;
72427;SDS011;60419;48.880;18.036;2023-07-29T10:54:47;4.18;;;2.25;;
72427;SDS011;60419;48.880;18.036;2023-07-29T10:57:37;3.30;;;2.15;;
72427;SDS011;60419;48.880;18.036;2023-07-29T11:00:26;3.40;;;2.00;;
72427;SDS011;60419;48.880;18.036;2023-07-29T11:03:16;3.40;;;2.20;;
72427;SDS011;60419;48.880;18.036;2023-07-29T11:06:03;4.38;;;2.38;;
72427;SDS011;60419;48.880;18.036;2023-07-29T11:08:50;6.07;;;2.35;;
72427;SDS011;60419;48.880;18.036;2023-07-29T11:11:35;4.20;;;2.33;;
72427;SDS011;60419;48.880;18.036;2023-07-29T11:14:24;4.60;;;2.17;;
72427;SDS011;60419;48.880;18.036;2023-07-29T11:17:09;4.47;;;2.15;;
72427;SDS011;60419;48.880;18.036;2023-07-29T11:19:55;3.40;;;1.70;;
72427;SDS011;60419;48.880;18.036;2023-07-29T11:22:45;3.42;;;2.03;;
72427;SDS011;60419;48.880;18.036;2023-07-29T11:25:30;3.72;;;1.90;;
72427;SDS011;60419;48.880;18.036;2023-07-29T11:28:18;3.55;;;2.10;;
72427;SDS011;60419;48.880;18.036;2023-07-29T11:31:03;4.85;;;2.30;;
72427;SDS011;60419;48.880;18.036;2023-07-29T11:33:49;3.78;;;2.10;;
72427;SDS011;60419;48.880;18.036;2023-07-29T11:36:34;3.70;;;2.05;;
72427;SDS011;60419;48.880;18.036;2023-07-29T11:39:19;3.65;;;2.53;;
72427;SDS011;60419;48.880;18.036;2023-07-29T11:42:05;6.10;;;2.30;;
72427;SDS011;60419;48.880;18.036;2023-07-29T11:44:50;8.50;;;2.83;;
72427;SDS011;60419;48.880;18.036;2023-07-29T11:47:36;4.22;;;2.50;;
72427;SDS011;60419;48.880;18.036;2023-07-29T11:50:22;4.82;;;2.47;;
72427;SDS011;60419;48.880;18.036;2023-07-29T11:53:07;4.75;;;2.60;;
72427;SDS011;60419;48.880;18.036;2023-07-29T11:55:53;4.20;;;2.40;;
72427;SDS011;60419;48.880;18.036;2023-07-29T11:58:38;3.35;;;2.08;;
72427;SDS011;60419;48.880;18.036;2023-07-29T12:01:24;4.95;;;2.20;;
72427;SDS011;60419;48.880;18.036;2023-07-29T12:04:09;5.85;;;2.58;;
72427;SDS011;60419;48.880;18.036;2023-07-29T12:06:55;3.55;;;2.10;;
72427;SDS011;60419;48.880;18.036;2023-07-29T12:09:42;3.67;;;2.20;;
72427;SDS011;60419;48.880;18.036;2023-07-29T12:12:28;3.17;;;2.20;;
72427;SDS011;60419;48.880;18.036;2023-07-29T12:15:13;3.45;;;2.03;;
72427;SDS011;60419;48.880;18.036;2023-07-29T12:17:59;3.80;;;2.15;;
72427;SDS011;60419;48.880;18.036;2023-07-29T12:20:44;3.40;;;2.03;;
72427;SDS011;60419;48.880;18.036;2023-07-29T12:23:30;4.03;;;1.85;;
72427;SDS011;60419;48.880;18.036;2023-07-29T12:26:15;3.40;;;2.00;;
72427;SDS011;60419;48.880;18.036;2023-07-29T12:29:10;3.97;;;1.83;;
72427;SDS011;60419;48.880;18.036;2023-07-29T12:32:03;2.88;;;1.88;;
72427;SDS011;60419;48.880;18.036;2023-07-29T12:34:49;2.90;;;2.10;;
72427;SDS011;60419;48.880;18.036;2023-07-29T12:37:34;2.88;;;1.92;;
72427;SDS011;60419;48.880;18.036;2023-07-29T12:40:20;3.97;;;2.00;;
72427;SDS011;60419;48.880;18.036;2023-07-29T12:43:09;4.38;;;1.80;;
72427;SDS011;60419;48.880;18.036;2023-07-29T12:45:54;4.55;;;1.80;;
72427;SDS011;60419;48.880;18.036;2023-07-29T12:48:42;2.80;;;1.80;;
72427;SDS011;60419;48.880;18.036;2023-07-29T12:51:28;2.80;;;1.63;;
72427;SDS011;60419;48.880;18.036;2023-07-29T12:54:13;2.97;;;1.63;;
72427;SDS011;60419;48.880;18.036;2023-07-29T12:56:58;3.80;;;2.15;;
72427;SDS011;60419;48.880;18.036;2023-07-29T12:59:44;3.38;;;1.95;;
72427;SDS011;60419;48.880;18.036;2023-07-29T13:02:29;2.88;;;1.75;;
72427;SDS011;60419;48.880;18.036;2023-07-29T13:05:14;2.67;;;1.70;;
72427;SDS011;60419;48.880;18.036;2023-07-29T13:08:00;2.90;;;1.58;;
72427;SDS011;60419;48.880;18.036;2023-07-29T13:10:45;3.58;;;1.85;;
72427;SDS011;60419;48.880;18.036;2023-07-29T13:13:31;3.67;;;1.45;;
72427;SDS011;60419;48.880;18.036;2023-07-29T13:16:17;2.45;;;1.58;;
72427;SDS011;60419;48.880;18.036;2023-07-29T13:19:02;4.35;;;2.00;;
72427;SDS011;60419;48.880;18.036;2023-07-29T13:21:47;3.20;;;1.90;;
72427;SDS011;60419;48.880;18.036;2023-07-29T13:24:33;3.95;;;1.83;;
72427;SDS011;60419;48.880;18.036;2023-07-29T13:27:18;2.85;;;1.60;;
72427;SDS011;60419;48.880;18.036;2023-07-29T13:30:04;2.67;;;1.60;;
72427;SDS011;60419;48.880;18.036;2023-07-29T13:32:50;2.72;;;1.55;;
72427;SDS011;60419;48.880;18.036;2023-07-29T13:35:35;4.03;;;2.10;;
72427;SDS011;60419;48.880;18.036;2023-07-29T13:38:20;3.05;;;1.90;;
72427;SDS011;60419;48.880;18.036;2023-07-29T13:41:06;4.32;;;2.00;;
72427;SDS011;60419;48.880;18.036;2023-07-29T13:43:51;5.18;;;1.70;;
72427;SDS011;60419;48.880;18.036;2023-07-29T13:46:37;2.15;;;1.27;;
72427;SDS011;60419;48.880;18.036;2023-07-29T13:49:22;3.97;;;1.73;;
72427;SDS011;60419;48.880;18.036;2023-07-29T13:52:08;4.45;;;1.60;;
72427;SDS011;60419;48.880;18.036;2023-07-29T13:54:53;2.45;;;1.70;;
72427;SDS011;60419;48.880;18.036;2023-07-29T13:57:39;2.28;;;1.73;;
72427;SDS011;60419;48.880;18.036;2023-07-29T14:00:27;2.35;;;1.45;;
72427;SDS011;60419;48.880;18.036;2023-07-29T14:03:12;3.95;;;1.60;;
72427;SDS011;60419;48.880;18.036;2023-07-29T14:05:58;2.33;;;1.40;;
72427;SDS011;60419;48.880;18.036;2023-07-29T14:08:43;2.20;;;1.30;;
72427;SDS011;60419;48.880;18.036;2023-07-29T14:11:28;2.22;;;1.38;;
72427;SDS011;60419;48.880;18.036;2023-07-29T14:14:14;2.40;;;1.15;;
72427;SDS011;60419;48.880;18.036;2023-07-29T14:17:00;3.00;;;1.23;;
72427;SDS011;60419;48.880;18.036;2023-07-29T14:19:45;2.25;;;1.40;;
72427;SDS011;60419;48.880;18.036;2023-07-29T14:22:30;2.90;;;1.60;;
72427;SDS011;60419;48.880;18.036;2023-07-29T14:25:16;1.90;;;1.08;;
72427;SDS011;60419;48.880;18.036;2023-07-29T14:28:01;2.60;;;1.38;;
72427;SDS011;60419;48.880;18.036;2023-07-29T14:30:47;2.28;;;1.17;;
72427;SDS011;60419;48.880;18.036;2023-07-29T14:33:32;3.72;;;1.30;;
72427;SDS011;60419;48.880;18.036;2023-07-29T14:36:18;3.72;;;1.20;;
72427;SDS011;60419;48.880;18.036;2023-07-29T14:39:03;2.40;;;1.20;;
72427;SDS011;60419;48.880;18.036;2023-07-29T14:41:48;2.22;;;1.10;;
72427;SDS011;60419;48.880;18.036;2023-07-29T14:44:34;1.90;;;1.13;;
72427;SDS011;60419;48.880;18.036;2023-07-29T14:47:19;2.58;;;1.40;;
72427;SDS011;60419;48.880;18.036;2023-07-29T14:50:05;2.20;;;1.27;;
72427;SDS011;60419;48.880;18.036;2023-07-29T14:52:50;2.30;;;1.10;;
72427;SDS011;60419;48.880;18.036;2023-07-29T14:55:36;2.28;;;1.05;;
72427;SDS011;60419;48.880;18.036;2023-07-29T14:58:22;1.60;;;1.00;;
72427;SDS011;60419;48.880;18.036;2023-07-29T15:01:10;1.70;;;1.05;;
72427;SDS011;60419;48.880;18.036;2023-07-29T15:03:55;1.92;;;1.10;;
72427;SDS011;60419;48.880;18.036;2023-07-29T15:06:40;1.75;;;1.10;;
72427;SDS011;60419;48.880;18.036;2023-07-29T15:09:26;2.65;;;1.20;;
72427;SDS011;60419;48.880;18.036;2023-07-29T15:12:11;2.20;;;1.02;;
72427;SDS011;60419;48.880;18.036;2023-07-29T15:14:56;1.88;;;1.17;;
72427;SDS011;60419;48.880;18.036;2023-07-29T15:17:42;2.70;;;1.10;;
72427;SDS011;60419;48.880;18.036;2023-07-29T15:20:27;3.03;;;1.30;;
72427;SDS011;60419;48.880;18.036;2023-07-29T15:23:13;2.40;;;1.20;;
72427;SDS011;60419;48.880;18.036;2023-07-29T15:25:58;0.98;;;0.80;;
72427;SDS011;60419;48.880;18.036;2023-07-29T15:28:43;1.98;;;1.20;;
72427;SDS011;60419;48.880;18.036;2023-07-29T15:31:29;1.80;;;0.90;;
72427;SDS011;60419;48.880;18.036;2023-07-29T15:34:14;1.88;;;1.08;;
72427;SDS011;60419;48.880;18.036;2023-07-29T15:37:01;2.17;;;1.00;;
72427;SDS011;60419;48.880;18.036;2023-07-29T15:39:47;2.22;;;1.17;;
72427;SDS011;60419;48.880;18.036;2023-07-29T15:42:32;2.20;;;1.00;;
72427;SDS011;60419;48.880;18.036;2023-07-29T15:45:18;1.88;;;1.00;;
72427;SDS011;60419;48.880;18.036;2023-07-29T15:48:03;1.88;;;0.90;;
72427;SDS011;60419;48.880;18.036;2023-07-29T15:50:49;2.40;;;1.00;;
72427;SDS011;60419;48.880;18.036;2023-07-29T15:53:34;1.80;;;0.90;;
72427;SDS011;60419;48.880;18.036;2023-07-29T15:56:19;1.77;;;0.90;;
72427;SDS011;60419;48.880;18.036;2023-07-29T15:59:05;1.38;;;0.82;;
72427;SDS011;60419;48.880;18.036;2023-07-29T16:01:50;2.67;;;1.02;;
72427;SDS011;60419;48.880;18.036;2023-07-29T16:04:36;2.80;;;1.00;;
72427;SDS011;60419;48.880;18.036;2023-07-29T16:07:21;2.63;;;0.88;;
72427;SDS011;60419;48.880;18.036;2023-07-29T16:10:08;2.92;;;1.00;;
72427;SDS011;60419;48.880;18.036;2023-07-29T16:12:53;1.48;;;0.85;;
72427;SDS011;60419;48.880;18.036;2023-07-29T16:15:39;2.65;;;1.27;;
72427;SDS011;60419;48.880;18.036;2023-07-29T16:18:24;1.90;;;0.90;;
72427;SDS011;60419;48.880;18.036;2023-07-29T16:21:10;2.63;;;0.90;;
72427;SDS011;60419;48.880;18.036;2023-07-29T16:23:56;1.35;;;0.80;;
72427;SDS011;60419;48.880;18.036;2023-07-29T16:26:41;2.25;;;0.90;;
72427;SDS011;60419;48.880;18.036;2023-07-29T16:29:27;2.28;;;1.17;;
72427;SDS011;60419;48.880;18.036;2023-07-29T16:32:12;1.20;;;0.77;;